createdAt,value
2022-10-10T00:00:49.141Z,100629.66
2022-10-10T00:03:18.558Z,100625.13
2022-10-10T00:05:45.677Z,100633.84
2022-10-10T00:08:12.454Z,100624.72
2022-10-10T00:10:38.923Z,100620.88
2022-10-10T00:13:08.005Z,100624.31
2022-10-10T00:15:34.423Z,100628.63
2022-10-10T00:18:00.823Z,100628.16
2022-10-10T00:20:27.445Z,100634.03
2022-10-10T00:22:54.231Z,100627.72
2022-10-10T00:25:20.759Z,100628.09
2022-10-10T00:27:47.501Z,100622.97
2022-10-10T00:30:14.052Z,100634.59
2022-10-10T00:32:40.415Z,100621.34
2022-10-10T00:35:09.466Z,100624.56
2022-10-10T00:37:35.889Z,100630.72
2022-10-10T00:40:02.403Z,100625.63
2022-10-10T00:42:28.841Z,100628.34
2022-10-10T00:45:29.530Z,100622.75
2022-10-10T00:48:27.928Z,100622.63
2022-10-10T00:50:56.779Z,100616.13
2022-10-10T00:53:30.538Z,100627.09
2022-10-10T00:55:59.814Z,100624.69
2022-10-10T00:58:28.488Z,100618.28
2022-10-10T01:00:55.562Z,100616.75
2022-10-10T01:03:22.037Z,100617.28
2022-10-10T01:05:53.554Z,100619.84
2022-10-10T01:08:21.050Z,100621.38
2022-10-10T01:10:59.025Z,100615.44
2022-10-10T01:13:38.518Z,100615.97
2022-10-10T01:16:17.495Z,100616.19
2022-10-10T01:19:05.711Z,100617.06
2022-10-10T01:21:44.489Z,100610.75
2022-10-10T01:24:32.912Z,100615.22
2022-10-10T01:27:08.969Z,100608.06
2022-10-10T01:29:51.076Z,100603.13
2022-10-10T01:32:34.991Z,100613.38
2022-10-10T01:35:13.673Z,100613.72
2022-10-10T01:38:03.384Z,100612.38
2022-10-10T01:41:00.560Z,100615.25
2022-10-10T01:43:27.044Z,100610.84
2022-10-10T01:45:54.306Z,100610.53
2022-10-10T01:48:30.774Z,100614.63
2022-10-10T01:51:18.457Z,100610.72
2022-10-10T01:53:54.324Z,100611.25
2022-10-10T01:56:32.437Z,100611.25
2022-10-10T01:59:24.162Z,100608.19
2022-10-10T02:02:55.242Z,100611.56
2022-10-10T02:05:48.444Z,100614.84
2022-10-10T02:08:17.826Z,100607.69
2022-10-10T02:10:52.432Z,100603.47
2022-10-10T02:13:23.803Z,100601.41
2022-10-10T02:15:53.767Z,100603.63
2022-10-10T02:18:25.420Z,100606.34
2022-10-10T02:20:53.421Z,100602.25
2022-10-10T02:23:21.884Z,100599.03
2022-10-10T02:25:55.645Z,100597.84
2022-10-10T02:28:50.479Z,100596.19
2022-10-10T02:31:25.729Z,100591.09
2022-10-10T02:33:58.397Z,100590.56
2022-10-10T02:36:27.337Z,100587.34
2022-10-10T02:38:55.607Z,100586.50
2022-10-10T02:41:23.280Z,100585.97
2022-10-10T02:43:51.847Z,100596.03
2022-10-10T02:46:18.511Z,100590.91
2022-10-10T02:48:45.128Z,100586.66
2022-10-10T02:51:14.237Z,100580.88
2022-10-10T02:53:40.650Z,100589.91
2022-10-10T02:56:11.900Z,100583.78
2022-10-10T02:58:38.254Z,100592.97
2022-10-10T03:01:04.771Z,100591.75
2022-10-10T03:03:31.216Z,100586.00
2022-10-10T03:06:05.073Z,100583.28
2022-10-10T03:08:31.926Z,100587.38
2022-10-10T03:11:00.756Z,100598.91
2022-10-10T03:13:30.583Z,100599.75
2022-10-10T03:15:57.216Z,100587.38
2022-10-10T03:18:24.003Z,100591.09
2022-10-10T03:20:52.449Z,100580.03
2022-10-10T03:23:19.049Z,100572.72
2022-10-10T03:25:45.919Z,100576.13
2022-10-10T03:28:15.416Z,100576.09
2022-10-10T03:30:42.489Z,100579.88
2022-10-10T03:33:09.748Z,100589.69
2022-10-10T03:35:41.343Z,100590.38
2022-10-10T03:38:07.818Z,100589.38
2022-10-10T03:40:34.370Z,100599.41
2022-10-10T03:43:00.816Z,100603.63
2022-10-10T03:45:27.209Z,100595.47
2022-10-10T03:47:53.750Z,100600.91
2022-10-10T03:50:20.262Z,100590.75
2022-10-10T03:52:49.381Z,100593.13
2022-10-10T03:55:16.476Z,100592.25
2022-10-10T03:57:42.948Z,100602.28
2022-10-10T04:00:10.494Z,100597.03
2022-10-10T04:02:39.435Z,100592.94
2022-10-10T04:05:06.297Z,100593.25
2022-10-10T04:07:33.097Z,100592.09
2022-10-10T04:10:02.336Z,100601.44
2022-10-10T04:12:28.776Z,100600.56
2022-10-10T04:14:55.236Z,100600.41
2022-10-10T04:17:21.733Z,100595.47
2022-10-10T04:19:48.144Z,100588.38
2022-10-10T04:22:17.020Z,100592.75
2022-10-10T04:24:44.112Z,100581.88
2022-10-10T04:27:11.098Z,100589.88
2022-10-10T04:29:37.550Z,100588.53
2022-10-10T04:32:06.235Z,100588.50
2022-10-10T04:34:32.738Z,100593.59
2022-10-10T04:37:01.653Z,100591.72
2022-10-10T04:39:28.553Z,100589.50
2022-10-10T04:41:54.987Z,100587.28
2022-10-10T04:44:21.354Z,100592.72
2022-10-10T04:46:47.797Z,100586.94
2022-10-10T04:49:14.223Z,100588.47
2022-10-10T04:51:40.576Z,100592.59
2022-10-10T04:54:07.061Z,100594.25
2022-10-10T04:56:33.541Z,100593.75
2022-10-10T04:58:59.963Z,100595.31
2022-10-10T05:01:28.998Z,100598.34
2022-10-10T05:03:55.965Z,100597.19
2022-10-10T05:06:22.491Z,100596.66
2022-10-10T05:08:48.928Z,100602.78
2022-10-10T05:11:15.312Z,100601.41
2022-10-10T05:13:41.738Z,100593.97
2022-10-10T05:16:08.281Z,100597.84
2022-10-10T05:18:37.353Z,100598.91
2022-10-10T05:21:06.886Z,100599.75
2022-10-10T05:23:34.493Z,100604.00
2022-10-10T05:26:03.224Z,100596.53
2022-10-10T05:28:35.124Z,100603.84
2022-10-10T05:31:02.382Z,100605.69
2022-10-10T05:33:29.082Z,100598.56
2022-10-10T05:36:12.129Z,100599.41
2022-10-10T05:38:44.430Z,100603.66
2022-10-10T05:41:10.805Z,100601.28
2022-10-10T05:43:39.703Z,100608.06
2022-10-10T05:46:06.407Z,100612.50
2022-10-10T05:48:32.846Z,100603.84
2022-10-10T05:51:02.231Z,100597.53
2022-10-10T05:53:30.341Z,100610.28
2022-10-10T05:56:01.171Z,100603.97
2022-10-10T05:58:27.658Z,100604.31
2022-10-10T06:00:54.662Z,100606.00
2022-10-10T06:03:21.145Z,100612.63
2022-10-10T06:05:51.730Z,100605.97
2022-10-10T06:08:18.111Z,100606.31
2022-10-10T06:10:46.305Z,100608.66
2022-10-10T06:13:14.592Z,100615.13
2022-10-10T06:15:41.416Z,100599.41
2022-10-10T06:18:08.399Z,100610.38
2022-10-10T06:20:42.957Z,100608.81
2022-10-10T06:23:11.904Z,100606.31
2022-10-10T06:25:40.907Z,100615.03
2022-10-10T06:28:09.088Z,100611.41
2022-10-10T06:30:40.044Z,100612.50
2022-10-10T06:33:07.495Z,100618.13
2022-10-10T06:35:33.929Z,100611.09
2022-10-10T06:38:00.337Z,100618.19
2022-10-10T06:40:29.034Z,100609.78
2022-10-10T06:42:57.826Z,100612.81
2022-10-10T06:45:26.911Z,100617.16
2022-10-10T06:47:55.634Z,100621.50
2022-10-10T06:50:22.097Z,100636.09
2022-10-10T06:52:48.844Z,100628.03
2022-10-10T06:55:15.467Z,100637.53
2022-10-10T06:57:47.199Z,100648.59
2022-10-10T07:00:14.692Z,100645.28
2022-10-10T07:02:41.146Z,100652.28
2022-10-10T07:05:11.996Z,100659.06
2022-10-10T07:07:39.630Z,100656.81
2022-10-10T07:10:07.303Z,100661.69
2022-10-10T07:12:40.490Z,100649.19
2022-10-10T07:15:10.233Z,100657.09
2022-10-10T07:17:39.065Z,100653.81
2022-10-10T07:20:06.132Z,100652.91
2022-10-10T07:22:37.661Z,100648.38
2022-10-10T07:25:04.529Z,100663.34
2022-10-10T07:27:33.247Z,100657.03
2022-10-10T07:29:59.628Z,100663.66
2022-10-10T07:32:26.090Z,100675.59
2022-10-10T07:34:53.557Z,100676.94
2022-10-10T07:37:19.984Z,100677.63
2022-10-10T07:39:46.389Z,100680.06
2022-10-10T07:42:12.840Z,100687.38
2022-10-10T07:44:39.336Z,100700.69
2022-10-10T07:47:05.992Z,100693.88
2022-10-10T07:49:32.621Z,100691.66
2022-10-10T07:52:01.451Z,100682.09
2022-10-10T07:54:32.032Z,100677.81
2022-10-10T07:56:58.592Z,100691.56
2022-10-10T07:59:27.888Z,100690.41
2022-10-10T08:01:56.714Z,100694.00
2022-10-10T08:04:23.403Z,100688.16
2022-10-10T08:06:49.854Z,100685.59
2022-10-10T08:09:16.361Z,100689.66
2022-10-10T08:11:43.095Z,100692.47
2022-10-10T08:14:09.698Z,100692.72
2022-10-10T08:16:36.691Z,100683.50
2022-10-10T08:19:03.814Z,100684.38
2022-10-10T08:21:30.232Z,100685.97
2022-10-10T08:23:56.793Z,100691.06
2022-10-10T08:26:23.136Z,100680.75
2022-10-10T08:28:49.879Z,100685.00
2022-10-10T08:31:19.459Z,100687.38
2022-10-10T08:33:46.763Z,100694.09
2022-10-10T08:36:24.210Z,100681.63
2022-10-10T08:38:52.660Z,100690.69
2022-10-10T08:41:34.802Z,100683.09
2022-10-10T08:44:12.162Z,100686.13
2022-10-10T08:46:52.394Z,100691.47
2022-10-10T08:49:23.450Z,100698.25
2022-10-10T08:51:58.223Z,100689.28
2022-10-10T08:54:26.897Z,100693.75
2022-10-10T08:57:00.650Z,100694.78
2022-10-10T08:59:34.747Z,100689.56
2022-10-10T09:02:26.360Z,100686.00
2022-10-10T09:05:05.411Z,100686.22
2022-10-10T09:07:50.312Z,100690.88
2022-10-10T09:10:34.669Z,100680.31
2022-10-10T09:13:15.178Z,100686.25
2022-10-10T09:15:52.025Z,100682.03
2022-10-10T09:18:33.315Z,100678.66
2022-10-10T09:21:14.613Z,100671.03
2022-10-10T09:23:45.998Z,100676.31
2022-10-10T09:26:15.035Z,100671.88
2022-10-10T09:28:50.592Z,100666.63
2022-10-10T09:31:28.471Z,100668.50
2022-10-10T09:34:21.281Z,100669.13
2022-10-10T09:36:48.261Z,100671.84
2022-10-10T09:39:31.162Z,100665.47
2022-10-10T09:42:05.196Z,100659.50
2022-10-10T09:44:34.236Z,100670.03
2022-10-10T09:47:00.669Z,100659.34
2022-10-10T09:49:29.612Z,100659.31
2022-10-10T09:51:56.096Z,100667.34
2022-10-10T09:54:24.957Z,100660.94
2022-10-10T09:56:54.802Z,100667.91
2022-10-10T09:59:36.722Z,100672.75
2022-10-10T10:02:15.028Z,100672.19
2022-10-10T10:04:41.569Z,100660.44
2022-10-10T10:07:31.800Z,100665.94
2022-10-10T10:10:02.018Z,100660.09
2022-10-10T10:12:40.353Z,100659.03
2022-10-10T10:15:23.714Z,100662.75
2022-10-10T10:18:10.197Z,100663.53
2022-10-10T10:20:41.964Z,100674.06
2022-10-10T10:23:33.216Z,100654.38
2022-10-10T10:26:19.861Z,100662.19
2022-10-10T10:28:49.998Z,100671.91
2022-10-10T10:32:09.761Z,100670.06
2022-10-10T10:34:42.778Z,100667.44
2022-10-10T10:37:14.840Z,100679.72
2022-10-10T10:39:59.554Z,100679.03
2022-10-10T10:42:59.648Z,100677.28
2022-10-10T10:45:45.052Z,100662.72
2022-10-10T10:48:21.296Z,100673.03
2022-10-10T10:50:54.407Z,100677.34
2022-10-10T10:53:34.124Z,100683.34
2022-10-10T10:56:23.849Z,100665.44
2022-10-10T11:00:26.619Z,100666.19
2022-10-10T11:02:54.715Z,100669.09
2022-10-10T11:05:31.161Z,100675.00
2022-10-10T11:08:09.199Z,100652.47
2022-10-10T11:10:56.457Z,100676.19
2022-10-10T11:13:41.816Z,100646.38
2022-10-10T11:16:43.942Z,100655.88
2022-10-10T11:19:15.898Z,100653.63
2022-10-10T11:21:54.534Z,100657.25
2022-10-10T11:24:51.230Z,100660.94
2022-10-10T11:27:50.753Z,100645.09
2022-10-10T11:30:24.953Z,100655.47
2022-10-10T11:33:08.045Z,100651.16
2022-10-10T11:35:44.447Z,100653.69
2022-10-10T11:38:15.131Z,100633.97
2022-10-10T11:41:05.159Z,100652.34
2022-10-10T11:43:59.732Z,100648.25
2022-10-10T11:46:59.515Z,100645.25
2022-10-10T11:49:34.757Z,100645.13
2022-10-10T11:52:33.031Z,100638.03
2022-10-10T11:55:26.414Z,100643.56
2022-10-10T11:57:58.122Z,100644.06
2022-10-10T12:00:28.515Z,100637.66
2022-10-10T12:02:57.321Z,100640.63
2022-10-10T12:05:30.083Z,100652.22
2022-10-10T12:07:56.469Z,100643.88
2022-10-10T12:10:35.452Z,100644.47
2022-10-10T12:13:31.330Z,100633.66
2022-10-10T12:16:03.283Z,100641.25
2022-10-10T12:18:39.217Z,100628.34
2022-10-10T12:21:12.301Z,100651.19
2022-10-10T12:23:43.164Z,100634.41
2022-10-10T12:26:19.430Z,100648.53
2022-10-10T12:29:04.877Z,100632.34
2022-10-10T12:31:38.677Z,100642.25
2022-10-10T12:34:10.593Z,100639.81
2022-10-10T12:36:40.141Z,100630.47
2022-10-10T12:39:07.822Z,100627.09
2022-10-10T12:41:52.720Z,100625.16
2022-10-10T12:44:24.309Z,100618.91
2022-10-10T12:47:15.983Z,100618.91
2022-10-10T12:50:00.396Z,100623.22
2022-10-10T12:52:32.898Z,100614.81
2022-10-10T12:55:06.542Z,100653.00
2022-10-10T12:57:38.107Z,100629.38
2022-10-10T13:00:35.527Z,100633.50
2022-10-10T13:03:10.796Z,100628.44
2022-10-10T13:05:40.888Z,100611.59
2022-10-10T13:08:13.974Z,100604.78
2022-10-10T13:10:40.466Z,100614.16
2022-10-10T13:13:17.420Z,100618.50
2022-10-10T13:15:54.918Z,100624.88
2022-10-10T13:18:33.697Z,100618.84
2022-10-10T13:21:01.579Z,100617.69
2022-10-10T13:23:28.517Z,100621.19
2022-10-10T13:25:55.061Z,100647.34
2022-10-10T13:28:22.219Z,100614.25
2022-10-10T13:30:50.432Z,100654.69
2022-10-10T13:33:22.744Z,100627.31
2022-10-10T13:35:50.694Z,100602.88
2022-10-10T13:38:20.008Z,100604.53
2022-10-10T13:40:49.938Z,100602.38
2022-10-10T13:43:18.507Z,100638.47
2022-10-10T13:45:55.888Z,100639.66
2022-10-10T13:48:27.493Z,100618.66
2022-10-10T13:51:03.999Z,100634.94
2022-10-10T13:53:44.912Z,100642.91
2022-10-10T13:56:23.089Z,100607.78
2022-10-10T13:58:55.388Z,100589.53
2022-10-10T14:02:01.297Z,100613.13
2022-10-10T14:04:35.021Z,100594.22
2022-10-10T14:07:08.628Z,100617.72
2022-10-10T14:09:38.248Z,100612.19
2022-10-10T14:12:10.644Z,100602.34
2022-10-10T14:14:47.888Z,100595.59
2022-10-10T14:17:15.272Z,100610.03
2022-10-10T14:19:44.998Z,100601.63
2022-10-10T14:22:11.506Z,100599.94
2022-10-10T14:24:38.005Z,100596.59
2022-10-10T14:27:13.399Z,100611.22
2022-10-10T14:29:39.955Z,100647.06
2022-10-10T14:32:06.409Z,100596.78
2022-10-10T14:34:32.811Z,100599.06
2022-10-10T14:37:04.503Z,100608.56
2022-10-10T14:39:31.150Z,100622.38
2022-10-10T14:41:58.749Z,100601.28
2022-10-10T14:44:29.901Z,100631.44
2022-10-10T14:46:56.349Z,100622.06
2022-10-10T14:49:25.318Z,100612.81
2022-10-10T14:51:51.828Z,100592.41
2022-10-10T14:54:20.576Z,100618.75
2022-10-10T14:57:08.489Z,100597.34
2022-10-10T14:59:47.506Z,100622.97
2022-10-10T15:02:19.726Z,100605.03
2022-10-10T15:04:46.247Z,100595.19
2022-10-10T15:07:14.595Z,100587.34
2022-10-10T15:10:02.541Z,100576.75
2022-10-10T15:12:31.322Z,100608.75
2022-10-10T15:14:57.863Z,100599.28
2022-10-10T15:17:25.538Z,100585.34
2022-10-10T15:19:52.209Z,100612.03
2022-10-10T15:22:19.128Z,100582.06
2022-10-10T15:24:48.056Z,100593.66
2022-10-10T15:27:14.424Z,100588.88
2022-10-10T15:29:40.968Z,100569.19
2022-10-10T15:32:07.914Z,100590.50
2022-10-10T15:34:34.854Z,100581.97
2022-10-10T15:37:01.335Z,100584.41
2022-10-10T15:39:32.346Z,100583.31
2022-10-10T15:42:09.350Z,100594.50
2022-10-10T15:44:45.670Z,100594.59
2022-10-10T15:47:13.461Z,100600.13
2022-10-10T15:49:40.426Z,100587.50
2022-10-10T15:52:11.030Z,100589.31
2022-10-10T15:54:40.217Z,100597.69
2022-10-10T15:57:06.550Z,100587.75
2022-10-10T15:59:33.259Z,100600.00
2022-10-10T16:02:00.539Z,100595.78
2022-10-10T16:04:27.118Z,100606.94
2022-10-10T16:07:19.921Z,100606.06
2022-10-10T16:09:40.733Z,100596.81
2022-10-10T16:12:07.262Z,100609.63
2022-10-10T16:14:33.721Z,100616.38
2022-10-10T16:17:00.865Z,100615.78
2022-10-10T16:19:27.254Z,100614.56
2022-10-10T16:21:53.661Z,100613.59
2022-10-10T16:24:20.085Z,100615.25
2022-10-10T16:26:46.582Z,100622.47
2022-10-10T16:29:18.398Z,100617.91
2022-10-10T16:31:44.804Z,100621.06
2022-10-10T16:34:12.817Z,100620.09
2022-10-10T16:36:39.538Z,100627.53
2022-10-10T16:39:05.972Z,100628.25
2022-10-10T16:41:49.563Z,100625.78
2022-10-10T16:44:17.496Z,100633.47
2022-10-10T16:46:44.279Z,100634.16
2022-10-10T16:49:12.703Z,100642.91
2022-10-10T16:51:42.338Z,100651.00
2022-10-10T16:54:13.303Z,100648.28
2022-10-10T16:56:42.878Z,100643.91
2022-10-10T16:59:11.409Z,100646.31
2022-10-10T17:01:38.020Z,100642.56
2022-10-10T17:04:04.807Z,100651.31
2022-10-10T17:06:37.329Z,100655.13
2022-10-10T17:09:09.916Z,100651.16
2022-10-10T17:11:36.454Z,100657.34
2022-10-10T17:14:05.794Z,100651.81
2022-10-10T17:19:18.851Z,100652.28
2022-10-10T17:21:45.281Z,100658.66
2022-10-10T17:24:11.661Z,100655.28
2022-10-10T17:26:40.554Z,100660.88
2022-10-10T17:29:09.397Z,100664.25
2022-10-10T17:31:38.084Z,100657.50
2022-10-10T17:34:04.441Z,100655.88
2022-10-10T17:36:38.011Z,100655.50
2022-10-10T17:39:04.455Z,100655.72
2022-10-10T17:41:33.172Z,100655.94
2022-10-10T17:43:59.753Z,100664.22
2022-10-10T17:46:36.167Z,100657.22
2022-10-10T17:49:09.840Z,100666.38
2022-10-10T17:51:38.785Z,100670.41
2022-10-10T17:54:08.418Z,100672.53
2022-10-10T17:56:35.470Z,100676.59
2022-10-10T17:59:05.510Z,100679.81
2022-10-10T18:01:33.281Z,100679.03
2022-10-10T18:04:00.353Z,100686.88
2022-10-10T18:06:29.199Z,100696.50
2022-10-10T18:08:56.419Z,100698.69
2022-10-10T18:11:25.930Z,100698.94
2022-10-10T18:13:52.826Z,100706.44
2022-10-10T18:16:22.144Z,100701.63
2022-10-10T18:18:51.692Z,100704.69
2022-10-10T18:21:21.339Z,100706.84
2022-10-10T18:23:48.723Z,100712.66
2022-10-10T18:26:22.556Z,100712.41
2022-10-10T18:28:52.224Z,100722.38
2022-10-10T18:31:24.656Z,100727.09
2022-10-10T18:33:51.208Z,100726.50
2022-10-10T18:36:21.781Z,100730.34
2022-10-10T18:38:48.268Z,100722.06
2022-10-10T18:41:17.332Z,100734.38
2022-10-10T18:43:44.740Z,100743.69
2022-10-10T18:46:13.509Z,100749.16
2022-10-10T18:48:48.062Z,100747.84
2022-10-10T18:51:24.692Z,100747.84
2022-10-10T18:53:55.078Z,100750.31
2022-10-10T18:56:24.460Z,100754.34
2022-10-10T18:58:55.736Z,100752.44
2022-10-10T19:01:24.779Z,100749.25
2022-10-10T19:03:52.532Z,100750.56
2022-10-10T19:06:19.683Z,100751.63
2022-10-10T19:08:46.249Z,100749.31
2022-10-10T19:11:25.930Z,100749.13
2022-10-10T19:13:52.629Z,100748.31
2022-10-10T19:16:19.882Z,100746.84
2022-10-10T19:18:46.899Z,100756.59
2022-10-10T19:21:14.954Z,100764.44
2022-10-10T19:23:42.309Z,100757.66
2022-10-10T19:26:12.257Z,100755.75
2022-10-10T19:28:39.698Z,100751.28
2022-10-10T19:31:08.924Z,100754.25
2022-10-10T19:33:38.531Z,100760.16
2022-10-10T19:36:09.178Z,100756.38
2022-10-10T19:38:38.623Z,100757.88
2022-10-10T19:41:07.423Z,100760.63
2022-10-10T19:43:36.621Z,100765.69
2022-10-10T19:46:08.200Z,100791.03
2022-10-10T19:48:36.826Z,100826.16
2022-10-10T19:51:08.984Z,100836.50
2022-10-10T19:53:36.746Z,100840.56
2022-10-10T19:56:08.608Z,100842.22
2022-10-10T19:58:36.904Z,100845.63
2022-10-10T20:01:17.328Z,100879.53
2022-10-10T20:03:46.272Z,100878.25
2022-10-10T20:06:13.079Z,100875.06
2022-10-10T20:08:40.123Z,100886.72
2022-10-10T20:11:06.872Z,100876.38
2022-10-10T20:13:34.781Z,100879.75
2022-10-10T20:16:06.872Z,100872.78
2022-10-10T20:18:35.153Z,100876.16
2022-10-10T20:21:08.915Z,100891.84
2022-10-10T20:23:38.941Z,100897.78
2022-10-10T20:26:11.408Z,100918.09
2022-10-10T20:28:37.946Z,100921.03
2022-10-10T20:31:04.583Z,100912.16
2022-10-10T20:33:31.481Z,100915.13
2022-10-10T20:36:00.807Z,100921.28
2022-10-10T20:38:29.759Z,100922.97
2022-10-10T20:40:56.233Z,100920.84
2022-10-10T20:43:22.697Z,100924.44
2022-10-10T20:45:49.064Z,100929.28
2022-10-10T20:48:17.918Z,100934.59
2022-10-10T20:50:44.386Z,100932.47
2022-10-10T20:53:14.083Z,100936.88
2022-10-10T20:55:40.659Z,100939.44
2022-10-10T20:58:07.152Z,100941.28
2022-10-10T21:00:37.551Z,100940.00
2022-10-10T21:03:06.249Z,100951.44
2022-10-10T21:05:32.685Z,100962.56
2022-10-10T21:07:59.054Z,100967.44
2022-10-10T21:10:25.496Z,100963.59
2022-10-10T21:12:51.905Z,100955.75
2022-10-10T21:15:23.275Z,100961.03
2022-10-10T21:17:49.708Z,100953.41
2022-10-10T21:20:16.208Z,100959.75
2022-10-10T21:22:42.638Z,100968.81
2022-10-10T21:25:13.121Z,100975.75
2022-10-10T21:27:39.546Z,100973.22
2022-10-10T21:30:06.599Z,100982.94
2022-10-10T21:32:33.019Z,100982.50
2022-10-10T21:34:59.424Z,100985.84
2022-10-10T21:37:27.149Z,100989.63
2022-10-10T21:39:53.523Z,100990.22
2022-10-10T21:42:22.446Z,101002.28
2022-10-10T21:44:48.795Z,101001.44
2022-10-10T21:47:15.255Z,101007.34
2022-10-10T21:49:41.733Z,101009.81
2022-10-10T21:52:08.166Z,101012.56
2022-10-10T21:54:34.594Z,101007.06
2022-10-10T21:57:01.049Z,101012.97
2022-10-10T21:59:31.539Z,101008.56
2022-10-10T22:01:58.989Z,101011.13
2022-10-10T22:04:28.854Z,101021.69
2022-10-10T22:06:55.666Z,101019.59
2022-10-10T22:09:22.215Z,101027.63
2022-10-10T22:11:51.049Z,101026.38
2022-10-10T22:14:17.509Z,101024.13
2022-10-10T22:16:49.038Z,101027.06
2022-10-10T22:19:17.857Z,101030.69
2022-10-10T22:21:44.242Z,101027.31
2022-10-10T22:24:10.843Z,101028.38
2022-10-10T22:26:37.356Z,101035.41
2022-10-10T22:29:04.404Z,101037.53
2022-10-10T22:31:31.056Z,101039.63
2022-10-10T22:33:57.685Z,101035.00
2022-10-10T22:36:24.062Z,101039.19
2022-10-10T22:38:50.529Z,101042.56
2022-10-10T22:41:19.234Z,101042.78
2022-10-10T22:43:45.678Z,101056.72
2022-10-10T22:46:12.213Z,101044.88
2022-10-10T22:48:39.195Z,101046.41
2022-10-10T22:51:09.108Z,101043.22
2022-10-10T22:53:35.852Z,101051.47
2022-10-10T22:56:03.237Z,101048.94
2022-10-10T22:58:31.801Z,101057.00
2022-10-10T23:01:04.798Z,101057.84
2022-10-10T23:03:31.308Z,101060.16
2022-10-10T23:06:02.933Z,101068.41
2022-10-10T23:08:29.930Z,101070.94
2022-10-10T23:10:58.871Z,101065.44
2022-10-10T23:13:27.884Z,101066.09
2022-10-10T23:15:54.552Z,101073.50
2022-10-10T23:18:21.094Z,101069.03
2022-10-10T23:20:50.526Z,101069.88
2022-10-10T23:23:18.436Z,101064.19
2022-10-10T23:25:48.335Z,101062.91
2022-10-10T23:28:15.868Z,101072.84
2022-10-10T23:30:47.235Z,101077.28
2022-10-10T23:33:15.010Z,101073.91
2022-10-10T23:35:41.399Z,101080.44
2022-10-10T23:38:08.014Z,101081.47
2022-10-10T23:40:34.545Z,101083.19
2022-10-10T23:43:01.104Z,101091.25
2022-10-10T23:45:29.825Z,101092.09
2022-10-10T23:48:00.958Z,101089.34
2022-10-10T23:50:27.347Z,101091.44
2022-10-10T23:52:55.849Z,101092.09
2022-10-10T23:55:24.891Z,101099.25
2022-10-10T23:57:51.275Z,101093.78
